createdAt,value
2022-07-30T00:02:05.143Z,99413.28
2022-07-30T00:06:06.653Z,99417.47
2022-07-30T00:10:08.939Z,99414.38
2022-07-30T00:14:10.757Z,99413.53
2022-07-30T00:18:13.304Z,99408.53
2022-07-30T00:22:14.814Z,99416.34
2022-07-30T00:26:16.294Z,99406.84
2022-07-30T00:30:17.764Z,99405.25
2022-07-30T00:34:19.387Z,99404.56
2022-07-30T00:38:20.782Z,99400.47
2022-07-30T00:42:25.996Z,99400.06
2022-07-30T00:46:27.376Z,99399.44
2022-07-30T00:50:28.845Z,99400.31
2022-07-30T00:54:30.540Z,99397.72
2022-07-30T00:58:32.082Z,99403.25
2022-07-30T01:02:34.314Z,99395.66
2022-07-30T01:06:35.837Z,99400.84
2022-07-30T01:10:37.286Z,99411.50
2022-07-30T01:14:39.482Z,99415.09
2022-07-30T01:19:02.372Z,99410.81
2022-07-30T01:23:27.708Z,99411.09
2022-07-30T01:27:36.662Z,99404.34
2022-07-30T01:31:38.816Z,99408.00
2022-07-30T01:35:43.219Z,99404.69
2022-07-30T01:39:45.195Z,99407.44
2022-07-30T01:43:47.424Z,99412.75
2022-07-30T01:47:52.299Z,99414.50
2022-07-30T01:51:54.825Z,99421.66
2022-07-30T01:55:57.970Z,99417.50
2022-07-30T02:00:03.513Z,99432.34
2022-07-30T02:04:05.313Z,99427.25
2022-07-30T02:08:18.710Z,99433.47
2022-07-30T02:12:28.541Z,99434.56
2022-07-30T02:16:35.384Z,99427.72
2022-07-30T02:20:38.555Z,99439.09
2022-07-30T02:24:42.890Z,99433.97
2022-07-30T02:28:47.704Z,99442.78
2022-07-30T02:32:51.489Z,99432.38
2022-07-30T02:36:53.973Z,99434.97
2022-07-30T02:40:57.701Z,99436.81
2022-07-30T02:45:01.330Z,99445.75
2022-07-30T02:49:03.406Z,99444.03
2022-07-30T02:53:08.817Z,99449.34
2022-07-30T02:57:10.992Z,99443.44
2022-07-30T03:01:16.217Z,99447.16
2022-07-30T03:05:18.280Z,99442.09
2022-07-30T03:09:21.289Z,99440.44
2022-07-30T03:13:24.387Z,99444.78
2022-07-30T03:17:28.061Z,99444.75
2022-07-30T03:21:34.130Z,99446.50
2022-07-30T03:25:35.925Z,99449.19
2022-07-30T03:29:39.523Z,99440.72
2022-07-30T03:33:41.815Z,99441.59
2022-07-30T03:37:44.001Z,99445.94
2022-07-30T03:41:47.286Z,99440.72
2022-07-30T03:45:50.409Z,99450.31
2022-07-30T03:49:52.382Z,99441.72
2022-07-30T03:53:54.337Z,99443.47
2022-07-30T03:57:55.930Z,99446.09
2022-07-30T04:02:03.931Z,99448.69
2022-07-30T04:06:08.610Z,99461.03
2022-07-30T04:10:10.730Z,99455.06
2022-07-30T04:14:12.309Z,99460.25
2022-07-30T04:18:17.003Z,99456.78
2022-07-30T04:22:34.035Z,99475.00
2022-07-30T04:26:37.095Z,99472.38
2022-07-30T04:30:38.907Z,99469.75
2022-07-30T04:34:52.651Z,99471.47
2022-07-30T04:38:54.170Z,99487.16
2022-07-30T04:42:56.167Z,99489.69
2022-07-30T04:46:58.188Z,99494.84
2022-07-30T04:51:04.433Z,99504.41
2022-07-30T04:55:09.854Z,99503.31
2022-07-30T04:59:11.676Z,99503.81
2022-07-30T05:03:14.631Z,99510.41
2022-07-30T05:07:18.182Z,99505.72
2022-07-30T05:11:23.755Z,99513.88
2022-07-30T05:15:36.241Z,99504.72
2022-07-30T05:19:38.874Z,99507.56
2022-07-30T05:23:40.663Z,99506.50
2022-07-30T05:27:42.303Z,99509.72
2022-07-30T05:31:44.295Z,99510.44
2022-07-30T05:35:47.801Z,99506.66
2022-07-30T05:39:58.892Z,99509.72
2022-07-30T05:44:04.866Z,99516.72
2022-07-30T05:48:06.642Z,99515.75
2022-07-30T05:52:08.057Z,99508.31
2022-07-30T05:56:09.846Z,99509.56
2022-07-30T06:00:12.477Z,99510.53
2022-07-30T06:04:14.031Z,99517.56
2022-07-30T06:08:15.532Z,99525.34
2022-07-30T06:12:16.978Z,99524.34
2022-07-30T06:16:18.408Z,99524.94
2022-07-30T06:20:20.788Z,99527.34
2022-07-30T06:24:22.574Z,99533.34
2022-07-30T06:28:39.814Z,99537.03
2022-07-30T06:32:43.445Z,99532.34
2022-07-30T06:36:45.056Z,99532.00
2022-07-30T06:40:46.503Z,99530.72
2022-07-30T06:44:48.054Z,99529.63
2022-07-30T06:48:49.466Z,99537.16
2022-07-30T06:52:50.961Z,99535.91
2022-07-30T06:56:52.471Z,99535.47
2022-07-30T07:00:54.329Z,99532.66
2022-07-30T07:04:55.759Z,99535.19
2022-07-30T07:08:57.185Z,99546.16
2022-07-30T07:13:00.622Z,99541.53
2022-07-30T07:17:02.371Z,99542.00
2022-07-30T07:21:04.293Z,99533.41
2022-07-30T07:25:06.591Z,99538.19
2022-07-30T07:29:08.029Z,99538.72
2022-07-30T07:33:10.247Z,99543.69
2022-07-30T07:37:11.836Z,99540.66
2022-07-30T07:41:13.314Z,99534.31
2022-07-30T07:45:14.686Z,99534.22
2022-07-30T07:49:16.354Z,99535.13
2022-07-30T07:53:17.918Z,99538.41
2022-07-30T07:57:19.405Z,99532.78
2022-07-30T08:01:22.342Z,99539.84
2022-07-30T08:05:24.054Z,99536.06
2022-07-30T08:09:25.678Z,99529.75
2022-07-30T08:13:48.715Z,99532.53
2022-07-30T08:17:49.104Z,99527.31
2022-07-30T08:21:50.883Z,99521.84
2022-07-30T08:25:52.282Z,99521.63
2022-07-30T08:29:53.818Z,99525.69
2022-07-30T08:33:55.385Z,99526.66
2022-07-30T08:37:56.817Z,99523.25
2022-07-30T08:41:59.225Z,99524.34
2022-07-30T08:46:02.237Z,99527.16
2022-07-30T08:50:06.470Z,99525.22
2022-07-30T08:54:08.067Z,99524.53
2022-07-30T08:58:28.543Z,99513.97
2022-07-30T09:02:33.212Z,99514.56
2022-07-30T09:06:36.431Z,99507.44
2022-07-30T09:10:37.850Z,99514.06
2022-07-30T09:14:39.296Z,99526.44
2022-07-30T09:18:44.307Z,99528.38
2022-07-30T09:22:48.811Z,99531.25
2022-07-30T09:27:02.548Z,99537.16
2022-07-30T09:31:04.175Z,99528.06
2022-07-30T09:35:13.998Z,99527.91
2022-07-30T09:39:15.807Z,99526.47
2022-07-30T09:43:17.425Z,99527.47
2022-07-30T09:47:32.362Z,99519.09
2022-07-30T09:51:56.411Z,99515.81
2022-07-30T09:55:59.280Z,99512.38
2022-07-30T10:00:18.568Z,99513.75
2022-07-30T10:04:27.601Z,99500.72
2022-07-30T10:08:51.326Z,99511.09
2022-07-30T10:13:04.598Z,99499.00
2022-07-30T10:17:06.446Z,99503.28
2022-07-30T10:21:08.517Z,99500.34
2022-07-30T10:25:10.441Z,99501.25
2022-07-30T10:29:19.146Z,99503.53
2022-07-30T10:33:34.835Z,99504.56
2022-07-30T10:37:48.009Z,99501.16
2022-07-30T10:42:18.783Z,99498.94
2022-07-30T10:46:44.613Z,99492.34
2022-07-30T10:50:55.249Z,99493.06
2022-07-30T10:54:57.805Z,99499.03
2022-07-30T10:59:08.233Z,99501.16
2022-07-30T11:03:40.670Z,99485.28
2022-07-30T11:07:47.438Z,99494.28
2022-07-30T11:12:15.889Z,99473.25
2022-07-30T11:16:12.601Z,99482.47
2022-07-30T11:20:15.043Z,99479.19
2022-07-30T11:24:43.359Z,99482.84
2022-07-30T11:28:49.165Z,99477.91
2022-07-30T11:32:52.283Z,99474.19
2022-07-30T11:37:18.073Z,99471.28
2022-07-30T11:41:23.778Z,99458.94
2022-07-30T11:45:27.163Z,99451.47
2022-07-30T11:49:36.146Z,99448.59
2022-07-30T11:53:37.701Z,99446.75
2022-07-30T11:57:42.998Z,99450.44
2022-07-30T12:01:50.143Z,99444.91
2022-07-30T12:05:53.287Z,99446.19
2022-07-30T12:10:12.197Z,99449.19
2022-07-30T12:14:14.043Z,99443.59
2022-07-30T12:18:26.761Z,99450.91
2022-07-30T12:22:31.590Z,99445.81
2022-07-30T12:26:34.610Z,99425.91
2022-07-30T12:30:40.593Z,99430.16
2022-07-30T12:34:54.661Z,99432.44
2022-07-30T12:38:57.981Z,99428.63
2022-07-30T12:42:59.592Z,99438.91
2022-07-30T12:47:02.144Z,99437.63
2022-07-30T12:51:08.381Z,99433.16
2022-07-30T12:55:12.957Z,99421.84
2022-07-30T12:59:23.879Z,99412.38
2022-07-30T13:03:28.324Z,99412.38
2022-07-30T13:07:32.083Z,99406.59
2022-07-30T13:11:48.768Z,99412.78
2022-07-30T13:16:02.477Z,99409.25
2022-07-30T13:20:04.312Z,99399.66
2022-07-30T13:24:06.328Z,99403.75
2022-07-30T13:28:07.985Z,99400.34
2022-07-30T13:32:09.698Z,99401.75
2022-07-30T13:36:11.154Z,99414.06
2022-07-30T13:40:12.616Z,99415.84
2022-07-30T13:44:14.046Z,99411.78
2022-07-30T13:48:15.616Z,99408.69
2022-07-30T13:52:17.749Z,99399.91
2022-07-30T13:56:19.803Z,99395.25
2022-07-30T14:00:22.837Z,99392.00
2022-07-30T14:04:24.355Z,99393.25
2022-07-30T14:08:25.831Z,99394.50
2022-07-30T14:12:27.910Z,99385.22
2022-07-30T14:16:44.674Z,99388.19
2022-07-30T14:20:48.890Z,99383.09
2022-07-30T14:24:50.489Z,99385.38
2022-07-30T14:28:51.978Z,99380.09
2022-07-30T14:32:59.315Z,99399.41
2022-07-30T14:37:04.049Z,99380.34
2022-07-30T14:41:07.140Z,99381.97
2022-07-30T14:45:09.637Z,99388.44
2022-07-30T14:49:11.381Z,99374.91
2022-07-30T14:53:22.086Z,99383.41
2022-07-30T14:57:24.366Z,99369.13
2022-07-30T15:01:25.863Z,99382.09
2022-07-30T15:05:27.342Z,99380.00
2022-07-30T15:09:29.386Z,99383.19
2022-07-30T15:13:30.835Z,99376.88
2022-07-30T15:17:33.996Z,99376.53
2022-07-30T15:21:35.431Z,99376.09
2022-07-30T15:25:37.217Z,99374.88
2022-07-30T15:29:38.766Z,99378.28
2022-07-30T15:33:45.210Z,99371.50
2022-07-30T15:37:47.098Z,99373.63
2022-07-30T15:41:48.638Z,99381.13
2022-07-30T15:45:56.216Z,99381.66
2022-07-30T15:49:58.033Z,99379.34
2022-07-30T15:53:59.706Z,99384.22
2022-07-30T15:58:01.290Z,99379.56
2022-07-30T16:02:03.336Z,99378.56
2022-07-30T16:06:04.970Z,99376.72
2022-07-30T16:10:07.130Z,99376.72
2022-07-30T16:14:09.054Z,99372.19
2022-07-30T16:18:10.482Z,99370.78
2022-07-30T16:22:12.489Z,99363.44
2022-07-30T16:26:22.990Z,99364.91
2022-07-30T16:30:27.489Z,99367.84
2022-07-30T16:34:29.421Z,99359.09
2022-07-30T16:38:31.128Z,99362.78
2022-07-30T16:42:32.557Z,99366.22
2022-07-30T16:46:34.411Z,99364.97
2022-07-30T16:50:35.809Z,99364.94
2022-07-30T16:54:37.482Z,99364.13
2022-07-30T16:58:38.989Z,99370.13
2022-07-30T17:02:40.625Z,99374.06
2022-07-30T17:06:44.001Z,99379.81
2022-07-30T17:10:46.213Z,99382.47
2022-07-30T17:14:49.281Z,99395.81
2022-07-30T17:18:50.750Z,99386.69
2022-07-30T17:22:55.233Z,99377.09
2022-07-30T17:26:57.051Z,99381.56
2022-07-30T17:30:58.884Z,99384.59
2022-07-30T17:35:01.162Z,99385.88
2022-07-30T17:39:02.605Z,99392.19
2022-07-30T17:43:04.630Z,99396.16
2022-07-30T17:47:11.006Z,99397.72
2022-07-30T17:51:15.694Z,99394.25
2022-07-30T17:55:17.205Z,99402.53
2022-07-30T17:59:18.560Z,99397.25
2022-07-30T18:03:19.974Z,99401.91
2022-07-30T18:07:21.497Z,99396.84
2022-07-30T18:11:23.109Z,99402.94
2022-07-30T18:15:24.523Z,99406.78
2022-07-30T18:19:27.354Z,99402.97
2022-07-30T18:23:34.805Z,99400.53
2022-07-30T18:27:36.506Z,99406.25
2022-07-30T18:31:38.159Z,99404.09
2022-07-30T18:35:39.585Z,99417.28
2022-07-30T18:39:41.350Z,99417.75
2022-07-30T18:43:47.872Z,99423.56
2022-07-30T18:47:50.183Z,99422.41
2022-07-30T18:51:51.576Z,99426.69
2022-07-30T18:55:53.789Z,99442.34
2022-07-30T18:59:55.201Z,99435.78
2022-07-30T19:03:56.665Z,99435.34
2022-07-30T19:07:58.946Z,99432.28
2022-07-30T19:12:01.018Z,99444.63
2022-07-30T19:16:02.730Z,99442.78
2022-07-30T19:20:05.574Z,99443.81
2022-07-30T19:24:08.361Z,99448.06
2022-07-30T19:28:13.755Z,99454.13
2022-07-30T19:32:15.209Z,99452.41
2022-07-30T19:36:20.587Z,99461.22
2022-07-30T19:40:22.328Z,99467.84
2022-07-30T19:44:23.889Z,99460.34
2022-07-30T19:48:28.991Z,99471.28
2022-07-30T19:52:32.557Z,99473.75
2022-07-30T19:56:37.841Z,99481.97
2022-07-30T20:00:39.422Z,99482.41
2022-07-30T20:04:43.624Z,99486.28
2022-07-30T20:08:45.394Z,99490.19
2022-07-30T20:12:50.810Z,99489.00
2022-07-30T20:16:52.239Z,99496.56
2022-07-30T20:20:57.629Z,99498.22
2022-07-30T20:24:59.202Z,99502.09
2022-07-30T20:29:01.077Z,99506.59
2022-07-30T20:33:03.280Z,99507.75
2022-07-30T20:37:17.774Z,99513.28
2022-07-30T20:41:24.110Z,99510.03
2022-07-30T20:45:40.386Z,99515.63
2022-07-30T20:49:42.189Z,99512.94
2022-07-30T20:53:45.421Z,99513.88
2022-07-30T20:58:00.338Z,99521.88
2022-07-30T21:02:09.827Z,99523.50
2022-07-30T21:06:16.827Z,99523.66
2022-07-30T21:10:19.200Z,99523.75
2022-07-30T21:14:25.458Z,99521.38
2022-07-30T21:18:27.007Z,99528.94
2022-07-30T21:22:28.469Z,99526.00
2022-07-30T21:26:30.047Z,99522.63
2022-07-30T21:30:33.318Z,99520.06
2022-07-30T21:34:40.262Z,99529.91
2022-07-30T21:38:43.750Z,99524.25
2022-07-30T21:42:48.348Z,99526.03
2022-07-30T21:46:50.539Z,99516.59
2022-07-30T21:50:53.258Z,99520.88
2022-07-30T21:54:55.006Z,99520.03
2022-07-30T21:58:57.128Z,99529.38
2022-07-30T22:02:58.437Z,99526.03
2022-07-30T22:07:02.313Z,99519.47
2022-07-30T22:11:04.098Z,99529.41
2022-07-30T22:15:10.602Z,99519.53
2022-07-30T22:19:17.258Z,99527.41
2022-07-30T22:23:20.133Z,99526.56
2022-07-30T22:27:21.966Z,99527.84
2022-07-30T22:31:23.590Z,99525.84
2022-07-30T22:35:32.412Z,99527.06
2022-07-30T22:39:51.487Z,99525.84
2022-07-30T22:43:54.176Z,99521.19
2022-07-30T22:47:55.785Z,99527.59
2022-07-30T22:52:05.027Z,99533.13
2022-07-30T22:56:23.951Z,99535.09
2022-07-30T23:00:27.178Z,99531.91
2022-07-30T23:04:30.333Z,99529.84
2022-07-30T23:08:34.468Z,99532.22
2022-07-30T23:12:36.263Z,99531.41
2022-07-30T23:16:38.839Z,99530.72
2022-07-30T23:20:40.449Z,99531.59
2022-07-30T23:24:42.342Z,99536.22
2022-07-30T23:28:43.970Z,99534.50
2022-07-30T23:32:53.919Z,99533.19
2022-07-30T23:36:55.388Z,99529.06
2022-07-30T23:41:01.213Z,99533.41
2022-07-30T23:45:03.017Z,99523.81
2022-07-30T23:49:04.996Z,99522.28
2022-07-30T23:53:06.481Z,99522.34
2022-07-30T23:57:07.950Z,99518.06
